createdAt,value
2018-12-11T00:01:43.536Z,11.67
2018-12-11T00:07:38.545Z,10.78
2018-12-11T00:13:33.564Z,9.42
2018-12-11T00:19:28.538Z,10.78
2018-12-11T00:25:23.550Z,11.39
2018-12-11T00:31:18.542Z,10.28
2018-12-11T00:37:13.554Z,9.53
2018-12-11T00:43:08.554Z,8.99
2018-12-11T00:49:03.540Z,7.9
2018-12-11T00:54:58.565Z,7.07
2018-12-11T01:00:53.593Z,6.68
2018-12-11T01:06:48.549Z,6.73
2018-12-11T01:12:43.573Z,6.57
2018-12-11T01:18:38.603Z,7.47
2018-12-11T01:24:33.586Z,7.22
2018-12-11T01:30:28.570Z,6.54
2018-12-11T01:36:23.619Z,6.44
2018-12-11T01:42:18.568Z,3.9
2018-12-11T01:48:13.579Z,3.54
2018-12-11T01:54:08.618Z,2.74
2018-12-11T02:00:03.597Z,1.66
2018-12-11T02:05:58.612Z,1.89
2018-12-11T02:11:53.622Z,1.87
2018-12-11T02:17:48.614Z,3.17
2018-12-11T02:23:43.612Z,4.98
2018-12-11T02:29:38.610Z,5.57
2018-12-11T02:35:33.665Z,3.38
2018-12-11T02:41:28.628Z,2.95
2018-12-11T02:47:23.674Z,2.87
2018-12-11T02:53:18.640Z,3.32
2018-12-11T02:59:13.735Z,3.14
2018-12-11T03:05:08.688Z,3.77
2018-12-11T03:11:03.638Z,4.08
2018-12-11T03:16:58.626Z,3.42
2018-12-11T03:22:53.630Z,2.82
2018-12-11T03:28:48.649Z,2.03
2018-12-11T03:34:43.630Z,2.24
2018-12-11T03:40:38.670Z,2.27
2018-12-11T03:46:33.715Z,1.63
2018-12-11T03:52:28.657Z,2.6
2018-12-11T03:58:23.689Z,4.32
2018-12-11T04:04:18.698Z,3.86
2018-12-11T04:10:13.668Z,3.49
2018-12-11T04:16:08.703Z,3.15
2018-12-11T04:22:03.656Z,4.23
2018-12-11T04:27:58.697Z,5.17
2018-12-11T04:33:53.676Z,4.22
2018-12-11T04:39:48.656Z,4.73
2018-12-11T04:45:43.735Z,5.21
2018-12-11T04:51:38.718Z,5.22
2018-12-11T04:57:33.699Z,3.26
2018-12-11T05:03:28.695Z,4.83
2018-12-11T05:09:23.736Z,3.07
2018-12-11T05:15:18.690Z,4.9
2018-12-11T05:21:13.691Z,5.4
2018-12-11T05:27:08.722Z,3.08
2018-12-11T05:33:03.720Z,3.19
2018-12-11T05:38:58.709Z,9.66
2018-12-11T05:44:53.710Z,4.18
2018-12-11T05:50:48.739Z,7.91
2018-12-11T05:56:43.752Z,5.34
2018-12-11T06:02:38.736Z,4.35
2018-12-11T06:08:33.726Z,7.87
2018-12-11T06:14:28.723Z,5.25
2018-12-11T06:20:23.747Z,5.14
2018-12-11T06:26:18.724Z,4.43
2018-12-11T06:32:13.729Z,5.43
2018-12-11T06:38:08.741Z,9.69
2018-12-11T06:44:03.739Z,25.51
2018-12-11T06:49:58.727Z,11.22
2018-12-11T06:55:53.732Z,8.2
2018-12-11T07:01:48.776Z,5.58
2018-12-11T07:07:43.739Z,7.13
2018-12-11T07:13:38.745Z,7.88
2018-12-11T07:19:33.787Z,8.57
2018-12-11T07:25:28.757Z,8.06
2018-12-11T07:31:23.770Z,8.87
2018-12-11T07:37:18.758Z,8.73
2018-12-11T07:43:13.770Z,8
2018-12-11T07:49:08.799Z,10.04
2018-12-11T07:55:03.799Z,15.68
2018-12-11T08:00:58.838Z,12.64
2018-12-11T08:06:53.764Z,15.22
2018-12-11T08:12:48.775Z,18.03
2018-12-11T08:18:43.842Z,18.98
2018-12-11T08:24:38.794Z,15.85
2018-12-11T08:30:33.782Z,13.02
2018-12-11T08:36:28.850Z,14.06
2018-12-11T08:42:23.792Z,14.95
2018-12-11T08:48:18.846Z,15.23
2018-12-11T08:54:13.795Z,13.88
2018-12-11T09:00:08.829Z,12.52
2018-12-11T09:06:03.830Z,15.23
2018-12-11T09:11:58.805Z,14.76
2018-12-11T09:17:53.803Z,15.72
2018-12-11T09:23:48.872Z,15.91
2018-12-11T09:29:43.818Z,16.83
2018-12-11T09:35:38.840Z,18.79
2018-12-11T09:41:33.836Z,21.02
2018-12-11T09:47:28.821Z,17.64
2018-12-11T09:53:23.818Z,26.59
2018-12-11T09:59:23.347Z,19.68
2018-12-11T10:05:13.873Z,27.51
2018-12-11T10:11:08.872Z,28.07
2018-12-11T10:17:03.840Z,26.8
2018-12-11T10:22:58.913Z,25.28
2018-12-11T10:28:53.911Z,20.62
2018-12-11T10:34:48.848Z,20.96
2018-12-11T10:40:43.928Z,21.62
2018-12-11T10:46:38.898Z,19.56
2018-12-11T10:52:33.890Z,27.68
2018-12-11T10:58:28.853Z,31.45
2018-12-11T11:04:23.846Z,23.28
2018-12-11T11:10:18.864Z,24.53
2018-12-11T11:16:13.910Z,26.64
2018-12-11T11:22:08.872Z,27.59
2018-12-11T11:28:03.887Z,16.61
2018-12-11T11:33:58.902Z,25.35
2018-12-11T11:39:53.921Z,24.47
2018-12-11T11:45:48.895Z,24.01
2018-12-11T11:51:43.875Z,35.48
2018-12-11T11:57:38.872Z,43.37
2018-12-11T12:03:33.932Z,31.31
2018-12-11T12:09:28.922Z,24.57
2018-12-11T12:15:23.889Z,19.68
2018-12-11T12:21:18.888Z,14.9
2018-12-11T12:27:13.925Z,14.65
2018-12-11T12:33:08.924Z,12.91
2018-12-11T12:39:03.945Z,10.75
2018-12-11T12:44:58.940Z,10.2
2018-12-11T12:50:53.917Z,10.58
2018-12-11T12:56:48.925Z,9.8
2018-12-11T13:02:49.660Z,18.47
2018-12-11T13:08:38.923Z,13.75
2018-12-11T13:14:33.935Z,13.8
2018-12-11T13:20:28.955Z,6.67
2018-12-11T13:26:23.953Z,1.47
2018-12-11T13:32:18.940Z,1.87
2018-12-11T13:38:13.945Z,1.44
2018-12-11T13:44:08.969Z,10.71
2018-12-11T13:50:03.973Z,3.71
2018-12-11T13:55:58.986Z,1.62
2018-12-11T14:01:53.946Z,2.36
2018-12-11T14:07:48.971Z,1.23
2018-12-11T14:13:43.982Z,3.04
2018-12-11T14:19:38.963Z,2.97
2018-12-11T14:25:33.988Z,4.58
2018-12-11T14:31:28.969Z,1.84
2018-12-11T14:37:23.971Z,2.73
2018-12-11T14:43:18.983Z,1.7
2018-12-11T14:49:14.061Z,1.55
2018-12-11T14:55:09.008Z,2.37
2018-12-11T15:01:03.983Z,4.43
2018-12-11T15:06:58.987Z,3.94
2018-12-11T15:12:53.994Z,3.3
2018-12-11T15:18:49.013Z,5.37
2018-12-11T15:24:44.022Z,1.47
2018-12-11T15:30:39.014Z,2.18
2018-12-11T15:36:34.009Z,3.3
2018-12-11T15:42:28.992Z,3.94
2018-12-11T15:48:24.021Z,2.74
2018-12-11T15:54:19.072Z,4.76
2018-12-11T16:00:14.046Z,3.69
2018-12-11T16:06:09.065Z,4.96
2018-12-11T16:12:04.041Z,3
2018-12-11T16:17:59.018Z,1.63
2018-12-11T16:23:54.042Z,3.45
2018-12-11T16:29:49.030Z,4.56
2018-12-11T16:35:44.040Z,3.68
2018-12-11T16:41:39.066Z,2.07
2018-12-11T16:47:34.059Z,2.81
2018-12-11T16:53:29.099Z,2.47
2018-12-11T16:59:24.085Z,2.33
2018-12-11T17:05:19.048Z,3.78
2018-12-11T17:11:14.065Z,9.58
2018-12-11T17:17:09.085Z,7.1
2018-12-11T17:23:04.067Z,6.68
2018-12-11T17:28:59.090Z,5.37
2018-12-11T17:34:54.101Z,5.85
2018-12-11T17:40:49.108Z,1.93
2018-12-11T17:46:44.063Z,1.68
2018-12-11T17:52:39.457Z,4.51
2018-12-11T17:58:34.160Z,3.8
2018-12-11T18:04:29.090Z,4.49
2018-12-11T18:10:24.090Z,5.56
2018-12-11T18:16:19.110Z,8.03
2018-12-11T18:22:14.104Z,9.76
2018-12-11T18:28:09.104Z,10.59
2018-12-11T18:34:10.810Z,12.66
2018-12-11T18:39:59.122Z,13.99
2018-12-11T18:45:54.163Z,9.73
2018-12-11T18:51:49.181Z,13.44
2018-12-11T18:57:44.144Z,13
2018-12-11T19:03:39.125Z,9.12
2018-12-11T19:09:34.139Z,8.83
2018-12-11T19:15:29.130Z,11.93
2018-12-11T19:21:24.200Z,21.23
2018-12-11T19:27:19.134Z,21.92
2018-12-11T19:33:14.145Z,34.35
2018-12-11T19:39:09.168Z,12.4
2018-12-11T19:45:04.150Z,6.53
2018-12-11T19:50:59.189Z,7.22
2018-12-11T19:56:54.147Z,10.36
2018-12-11T20:02:49.175Z,11.14
2018-12-11T20:08:44.159Z,7.7
2018-12-11T20:14:39.160Z,13.26
2018-12-11T20:20:34.168Z,17.18
2018-12-11T20:26:29.158Z,16.81
2018-12-11T20:32:24.173Z,13.29
2018-12-11T20:38:19.170Z,20.57
2018-12-11T20:44:14.242Z,10.6
2018-12-11T20:50:09.199Z,13.97
2018-12-11T20:56:04.181Z,13.11
2018-12-11T21:01:59.186Z,7.77
2018-12-11T21:07:54.179Z,9.37
2018-12-11T21:13:49.206Z,13.84
2018-12-11T21:19:44.208Z,15.98
2018-12-11T21:25:39.200Z,6.32
2018-12-11T21:31:34.207Z,6.4
2018-12-11T21:37:29.204Z,5.38
2018-12-11T21:43:24.196Z,12.15
2018-12-11T21:49:19.201Z,6.93
2018-12-11T21:55:14.273Z,7.74
2018-12-11T22:01:09.277Z,8.79
2018-12-11T22:07:04.210Z,19.37
2018-12-11T22:12:59.220Z,15.16
2018-12-11T22:18:54.233Z,12.7
2018-12-11T22:24:49.226Z,14.1
2018-12-11T22:30:44.229Z,12.03
2018-12-11T22:36:39.240Z,19.09
2018-12-11T22:42:34.253Z,12.14
2018-12-11T22:48:29.251Z,13.33
2018-12-11T22:54:24.266Z,14
2018-12-11T23:00:19.282Z,15.67
2018-12-11T23:06:14.244Z,11.46
2018-12-11T23:12:09.302Z,8.66
2018-12-11T23:18:04.269Z,8.1
2018-12-11T23:23:59.243Z,10.93
2018-12-11T23:29:54.278Z,8.9
2018-12-11T23:35:49.256Z,9.2
2018-12-11T23:41:44.284Z,6.95
2018-12-11T23:47:39.290Z,7.32
2018-12-11T23:53:34.268Z,6.62
2018-12-11T23:59:29.433Z,9.93
